sensor_id;sensor_type;location;lat;lon;timestamp;pressure;altitude;pressure_sealevel;temperature;humidity
79142;BME280;68550;-26.480;29.234;2023-09-08T00:15:23;84600.79;;;16.44;27.16
79142;BME280;68550;-26.480;29.234;2023-09-08T00:17:42;84593.36;;;18.07;24.79
79142;BME280;68550;-26.480;29.234;2023-09-08T00:20:12;84588.20;;;19.44;23.39
79142;BME280;68550;-26.480;29.234;2023-09-08T00:22:38;84581.45;;;20.23;22.89
79142;BME280;68550;-26.480;29.234;2023-09-08T00:25:20;84579.50;;;20.87;22.44
79142;BME280;68550;-26.480;29.234;2023-09-08T00:27:31;84573.71;;;21.46;21.89
79142;BME280;68550;-26.480;29.234;2023-09-08T00:29:54;84571.19;;;21.65;21.95
79142;BME280;68550;-26.480;29.234;2023-09-08T00:35:01;84570.76;;;21.68;21.37
79142;BME280;68550;-26.480;29.234;2023-09-08T00:37:11;84570.54;;;21.73;21.04
79142;BME280;68550;-26.480;29.234;2023-09-08T00:39:37;84569.27;;;22.21;20.35
79142;BME280;68550;-26.480;29.234;2023-09-08T00:42:02;84562.77;;;21.93;19.98
79142;BME280;68550;-26.480;29.234;2023-09-08T00:51:43;84563.92;;;22.44;19.36
79142;BME280;68550;-26.480;29.234;2023-09-08T00:54:09;84567.12;;;22.77;19.39
79142;BME280;68550;-26.480;29.234;2023-09-08T00:56:35;84564.00;;;22.61;19.35
79142;BME280;68550;-26.480;29.234;2023-09-08T00:59:00;84562.31;;;22.62;19.39
79142;BME280;68550;-26.480;29.234;2023-09-08T01:03:50;84553.06;;;22.48;19.32
79142;BME280;68550;-26.480;29.234;2023-09-08T01:06:16;84551.89;;;22.67;20.45
79142;BME280;68550;-26.480;29.234;2023-09-08T01:08:42;84548.27;;;22.58;19.61
79142;BME280;68550;-26.480;29.234;2023-09-08T01:12:07;84553.82;;;21.91;20.41
79142;BME280;68550;-26.480;29.234;2023-09-08T01:14:30;84546.20;;;22.42;19.51
79142;BME280;68550;-26.480;29.234;2023-09-08T01:16:57;84541.22;;;22.56;19.45
79142;BME280;68550;-26.480;29.234;2023-09-08T01:19:28;84537.26;;;22.90;19.47
79142;BME280;68550;-26.480;29.234;2023-09-08T01:22:07;84533.05;;;23.01;19.29
79142;BME280;68550;-26.480;29.234;2023-09-08T01:24:26;84531.37;;;23.07;19.65
79142;BME280;68550;-26.480;29.234;2023-09-08T01:26:41;84527.73;;;23.12;19.27
79142;BME280;68550;-26.480;29.234;2023-09-08T01:29:06;84529.80;;;23.08;19.39
79142;BME280;68550;-26.480;29.234;2023-09-08T01:31:30;84533.14;;;22.89;19.62
79142;BME280;68550;-26.480;29.234;2023-09-08T01:33:55;84533.07;;;23.13;19.74
79142;BME280;68550;-26.480;29.234;2023-09-08T01:36:20;84535.84;;;22.84;19.40
79142;BME280;68550;-26.480;29.234;2023-09-08T01:38:46;84531.60;;;22.82;19.37
79142;BME280;68550;-26.480;29.234;2023-09-08T01:41:11;84532.35;;;22.86;18.99
79142;BME280;68550;-26.480;29.234;2023-09-08T01:43:37;84536.59;;;22.58;19.05
79142;BME280;68550;-26.480;29.234;2023-09-08T01:46:03;84535.69;;;22.60;19.30
79142;BME280;68550;-26.480;29.234;2023-09-08T01:48:28;84539.41;;;22.73;18.99
79142;BME280;68550;-26.480;29.234;2023-09-08T01:50:54;84539.91;;;22.86;19.08
79142;BME280;68550;-26.480;29.234;2023-09-08T01:53:19;84538.35;;;22.62;19.26
79142;BME280;68550;-26.480;29.234;2023-09-08T01:55:44;84543.02;;;22.92;19.35
79142;BME280;68550;-26.480;29.234;2023-09-08T01:58:13;84545.11;;;22.94;19.50
79142;BME280;68550;-26.480;29.234;2023-09-08T02:00:35;84549.18;;;22.70;19.96
79142;BME280;68550;-26.480;29.234;2023-09-08T02:03:01;84550.50;;;22.75;20.35
79142;BME280;68550;-26.480;29.234;2023-09-08T02:05:26;84555.87;;;22.68;20.10
79142;BME280;68550;-26.480;29.234;2023-09-08T02:07:52;84557.58;;;22.47;20.30
79142;BME280;68550;-26.480;29.234;2023-09-08T02:10:19;84555.55;;;22.41;20.50
79142;BME280;68550;-26.480;29.234;2023-09-08T02:12:43;84553.65;;;22.48;20.31
79142;BME280;68550;-26.480;29.234;2023-09-08T02:15:09;84555.77;;;22.65;20.42
79142;BME280;68550;-26.480;29.234;2023-09-08T02:17:34;84556.35;;;22.49;20.52
79142;BME280;68550;-26.480;29.234;2023-09-08T02:19:59;84555.08;;;22.54;20.47
79142;BME280;68550;-26.480;29.234;2023-09-08T02:22:25;84556.35;;;22.30;19.87
79142;BME280;68550;-26.480;29.234;2023-09-08T02:24:50;84554.20;;;22.20;20.36
79142;BME280;68550;-26.480;29.234;2023-09-08T02:27:15;84551.19;;;22.43;19.98
79142;BME280;68550;-26.480;29.234;2023-09-08T02:29:41;84549.61;;;22.47;19.80
79142;BME280;68550;-26.480;29.234;2023-09-08T02:32:06;84554.01;;;22.63;20.10
79142;BME280;68550;-26.480;29.234;2023-09-08T02:34:35;84558.33;;;22.46;20.14
79142;BME280;68550;-26.480;29.234;2023-09-08T02:36:57;84563.98;;;22.43;20.30
79142;BME280;68550;-26.480;29.234;2023-09-08T02:39:23;84565.17;;;22.39;20.38
79142;BME280;68550;-26.480;29.234;2023-09-08T02:41:48;84559.39;;;22.65;20.24
79142;BME280;68550;-26.480;29.234;2023-09-08T02:44:14;84557.67;;;22.44;20.34
79142;BME280;68550;-26.480;29.234;2023-09-08T02:46:41;84561.34;;;22.28;19.88
79142;BME280;68550;-26.480;29.234;2023-09-08T02:49:06;84561.32;;;22.58;19.35
79142;BME280;68550;-26.480;29.234;2023-09-08T02:51:31;84559.79;;;22.52;19.39
79142;BME280;68550;-26.480;29.234;2023-09-08T02:53:56;84560.66;;;22.60;19.17
79142;BME280;68550;-26.480;29.234;2023-09-08T02:56:21;84560.40;;;22.70;19.04
79142;BME280;68550;-26.480;29.234;2023-09-08T02:58:47;84557.69;;;22.71;19.21
79142;BME280;68550;-26.480;29.234;2023-09-08T03:01:15;84561.12;;;22.42;19.13
79142;BME280;68550;-26.480;29.234;2023-09-08T03:03:38;84563.52;;;22.59;19.07
79142;BME280;68550;-26.480;29.234;2023-09-08T03:06:04;84564.02;;;22.70;19.24
79142;BME280;68550;-26.480;29.234;2023-09-08T03:08:29;84562.60;;;22.68;19.09
79142;BME280;68550;-26.480;29.234;2023-09-08T03:10:57;84564.67;;;22.43;19.46
79142;BME280;68550;-26.480;29.234;2023-09-08T03:13:20;84566.56;;;22.67;19.18
79142;BME280;68550;-26.480;29.234;2023-09-08T03:15:46;84567.53;;;22.64;19.36
79142;BME280;68550;-26.480;29.234;2023-09-08T03:18:11;84568.74;;;22.68;19.22
79142;BME280;68550;-26.480;29.234;2023-09-08T03:20:47;84569.04;;;22.62;19.36
79142;BME280;68550;-26.480;29.234;2023-09-08T03:23:02;84569.87;;;22.70;19.25
79142;BME280;68550;-26.480;29.234;2023-09-08T03:25:28;84568.08;;;22.67;19.30
79142;BME280;68550;-26.480;29.234;2023-09-08T03:27:53;84570.32;;;22.73;19.44
79142;BME280;68550;-26.480;29.234;2023-09-08T03:30:19;84572.90;;;22.45;19.30
79142;BME280;68550;-26.480;29.234;2023-09-08T03:32:44;84573.12;;;22.77;19.31
79142;BME280;68550;-26.480;29.234;2023-09-08T03:35:10;84574.09;;;22.68;19.44
79142;BME280;68550;-26.480;29.234;2023-09-08T03:37:36;84574.39;;;22.73;19.50
79142;BME280;68550;-26.480;29.234;2023-09-08T03:40:01;84573.41;;;22.71;19.58
79142;BME280;68550;-26.480;29.234;2023-09-08T03:42:27;84576.38;;;22.69;19.56
79142;BME280;68550;-26.480;29.234;2023-09-08T03:44:56;84578.48;;;22.64;19.65
79142;BME280;68550;-26.480;29.234;2023-09-08T03:47:18;84576.45;;;22.76;19.48
79142;BME280;68550;-26.480;29.234;2023-09-08T03:49:47;84576.71;;;22.57;19.87
79142;BME280;68550;-26.480;29.234;2023-09-08T03:52:09;84580.41;;;22.55;19.90
79142;BME280;68550;-26.480;29.234;2023-09-08T03:54:35;84582.68;;;22.57;19.89
79142;BME280;68550;-26.480;29.234;2023-09-08T03:57:00;84587.99;;;22.37;20.37
79142;BME280;68550;-26.480;29.234;2023-09-08T03:59:25;84588.74;;;22.62;20.36
79142;BME280;68550;-26.480;29.234;2023-09-08T04:01:51;84591.07;;;22.48;20.41
79142;BME280;68550;-26.480;29.234;2023-09-08T04:04:16;84594.10;;;22.35;20.29
79142;BME280;68550;-26.480;29.234;2023-09-08T04:06:43;84597.47;;;22.30;20.49
79142;BME280;68550;-26.480;29.234;2023-09-08T04:09:07;84599.04;;;22.42;20.44
79142;BME280;68550;-26.480;29.234;2023-09-08T04:11:33;84600.53;;;22.27;20.51
79142;BME280;68550;-26.480;29.234;2023-09-08T04:13:58;84604.34;;;22.16;20.61
79142;BME280;68550;-26.480;29.234;2023-09-08T04:16:25;84608.18;;;22.11;20.59
79142;BME280;68550;-26.480;29.234;2023-09-08T04:18:49;84611.61;;;22.06;20.66
79142;BME280;68550;-26.480;29.234;2023-09-08T04:21:15;84614.05;;;22.39;20.60
79142;BME280;68550;-26.480;29.234;2023-09-08T04:23:40;84614.89;;;22.13;20.57
79142;BME280;68550;-26.480;29.234;2023-09-08T04:26:06;84620.43;;;22.58;20.11
79142;BME280;68550;-26.480;29.234;2023-09-08T04:28:31;84625.12;;;22.83;19.84
79142;BME280;68550;-26.480;29.234;2023-09-08T04:30:59;84632.96;;;22.69;19.48
79142;BME280;68550;-26.480;29.234;2023-09-08T04:33:24;84637.20;;;22.13;19.27
79142;BME280;68550;-26.480;29.234;2023-09-08T04:35:47;84638.94;;;22.57;19.35
79142;BME280;68550;-26.480;29.234;2023-09-08T04:38:12;84644.98;;;22.52;19.71
79142;BME280;68550;-26.480;29.234;2023-09-08T04:40:41;84647.87;;;22.72;19.93
79142;BME280;68550;-26.480;29.234;2023-09-08T04:43:03;84655.93;;;22.43;20.46
79142;BME280;68550;-26.480;29.234;2023-09-08T04:45:29;84660.15;;;22.59;20.42
79142;BME280;68550;-26.480;29.234;2023-09-08T04:47:54;84656.60;;;22.44;20.28
79142;BME280;68550;-26.480;29.234;2023-09-08T04:50:20;84667.95;;;22.48;20.31
79142;BME280;68550;-26.480;29.234;2023-09-08T04:52:45;84666.14;;;22.33;20.51
79142;BME280;68550;-26.480;29.234;2023-09-08T04:55:11;84673.76;;;22.24;21.18
79142;BME280;68550;-26.480;29.234;2023-09-08T04:57:36;84673.85;;;22.37;21.15
79142;BME280;68550;-26.480;29.234;2023-09-08T05:00:02;84676.72;;;22.04;21.15
79142;BME280;68550;-26.480;29.234;2023-09-08T05:02:27;84682.46;;;22.37;20.77
79142;BME280;68550;-26.480;29.234;2023-09-08T05:04:53;84680.01;;;21.98;20.90
79142;BME280;68550;-26.480;29.234;2023-09-08T05:07:21;84685.20;;;22.40;20.77
79142;BME280;68550;-26.480;29.234;2023-09-08T05:09:44;84689.66;;;22.45;21.06
79142;BME280;68550;-26.480;29.234;2023-09-08T05:12:10;84686.35;;;22.57;20.94
79142;BME280;68550;-26.480;29.234;2023-09-08T05:14:35;84682.23;;;22.12;18.33
79142;BME280;68550;-26.480;29.234;2023-09-08T05:17:01;84687.05;;;21.31;18.72
79142;BME280;68550;-26.480;29.234;2023-09-08T05:19:26;84695.19;;;21.85;19.20
79142;BME280;68550;-26.480;29.234;2023-09-08T05:21:53;84698.76;;;21.92;19.61
79142;BME280;68550;-26.480;29.234;2023-09-08T05:24:17;84698.03;;;22.30;19.74
79142;BME280;68550;-26.480;29.234;2023-09-08T05:26:43;84698.84;;;22.39;19.76
79142;BME280;68550;-26.480;29.234;2023-09-08T05:29:08;84698.48;;;22.44;19.76
79142;BME280;68550;-26.480;29.234;2023-09-08T05:31:34;84696.77;;;22.47;19.75
79142;BME280;68550;-26.480;29.234;2023-09-08T05:33:59;84700.04;;;22.53;19.71
79142;BME280;68550;-26.480;29.234;2023-09-08T05:36:24;84700.06;;;22.36;19.74
79142;BME280;68550;-26.480;29.234;2023-09-08T05:38:49;84695.03;;;22.33;19.74
79142;BME280;68550;-26.480;29.234;2023-09-08T05:41:14;84701.33;;;22.63;19.82
79142;BME280;68550;-26.480;29.234;2023-09-08T05:43:42;84702.43;;;22.09;19.86
79142;BME280;68550;-26.480;29.234;2023-09-08T05:46:05;84705.96;;;22.63;19.79
79142;BME280;68550;-26.480;29.234;2023-09-08T05:48:31;84709.07;;;22.66;19.76
79142;BME280;68550;-26.480;29.234;2023-09-08T05:50:56;84709.67;;;22.48;19.82
79142;BME280;68550;-26.480;29.234;2023-09-08T05:53:21;84708.44;;;22.83;19.83
79142;BME280;68550;-26.480;29.234;2023-09-08T05:55:46;84709.31;;;22.55;19.85
79142;BME280;68550;-26.480;29.234;2023-09-08T05:58:13;84709.00;;;22.83;19.86
79142;BME280;68550;-26.480;29.234;2023-09-08T06:00:38;84710.85;;;22.65;19.83
79142;BME280;68550;-26.480;29.234;2023-09-08T06:03:03;84705.17;;;22.77;19.88
79142;BME280;68550;-26.480;29.234;2023-09-08T06:05:28;84703.07;;;22.67;19.96
79142;BME280;68550;-26.480;29.234;2023-09-08T06:07:54;84705.51;;;22.80;19.96
79142;BME280;68550;-26.480;29.234;2023-09-08T06:10:21;84708.33;;;22.74;20.04
79142;BME280;68550;-26.480;29.234;2023-09-08T06:12:45;84713.03;;;23.08;20.04
79142;BME280;68550;-26.480;29.234;2023-09-08T06:15:11;84715.93;;;22.82;20.08
79142;BME280;68550;-26.480;29.234;2023-09-08T06:17:36;84720.41;;;22.92;20.09
79142;BME280;68550;-26.480;29.234;2023-09-08T06:20:06;84721.02;;;22.93;20.10
79142;BME280;68550;-26.480;29.234;2023-09-08T06:22:30;84722.36;;;22.73;20.13
79142;BME280;68550;-26.480;29.234;2023-09-08T06:24:53;84724.31;;;22.78;19.91
79142;BME280;68550;-26.480;29.234;2023-09-08T06:27:21;84722.38;;;23.10;19.79
79142;BME280;68550;-26.480;29.234;2023-09-08T06:29:44;84722.87;;;22.88;19.76
79142;BME280;68550;-26.480;29.234;2023-09-08T06:32:10;84719.08;;;23.19;19.84
79142;BME280;68550;-26.480;29.234;2023-09-08T06:34:36;84721.77;;;23.17;19.94
79142;BME280;68550;-26.480;29.234;2023-09-08T06:37:00;84721.27;;;23.17;19.92
79142;BME280;68550;-26.480;29.234;2023-09-08T06:39:26;84726.85;;;23.03;19.69
79142;BME280;68550;-26.480;29.234;2023-09-08T06:41:53;84726.08;;;23.29;19.77
79142;BME280;68550;-26.480;29.234;2023-09-08T06:44:19;84724.44;;;23.07;19.78
79142;BME280;68550;-26.480;29.234;2023-09-08T06:46:43;84729.33;;;22.89;19.67
79142;BME280;68550;-26.480;29.234;2023-09-08T06:49:08;84729.44;;;22.85;19.61
79142;BME280;68550;-26.480;29.234;2023-09-08T06:51:33;84728.47;;;22.93;19.57
79142;BME280;68550;-26.480;29.234;2023-09-08T06:53:58;84725.26;;;23.23;19.55
79142;BME280;68550;-26.480;29.234;2023-09-08T06:56:24;84728.94;;;23.52;19.45
79142;BME280;68550;-26.480;29.234;2023-09-08T06:58:49;84732.83;;;23.60;19.30
79142;BME280;68550;-26.480;29.234;2023-09-08T07:04:30;84727.47;;;21.94;20.63
79142;BME280;68550;-26.480;29.234;2023-09-08T07:06:55;84726.64;;;22.43;19.91
79142;BME280;68550;-26.480;29.234;2023-09-08T07:09:19;84728.45;;;22.68;19.87
79142;BME280;68550;-26.480;29.234;2023-09-08T07:11:45;84724.85;;;22.81;19.50
79142;BME280;68550;-26.480;29.234;2023-09-08T07:14:11;84726.73;;;22.76;19.45
79142;BME280;68550;-26.480;29.234;2023-09-08T07:16:37;84728.87;;;23.23;19.19
79142;BME280;68550;-26.480;29.234;2023-09-08T07:19:02;84729.59;;;23.14;18.91
79142;BME280;68550;-26.480;29.234;2023-09-08T07:21:27;84728.38;;;23.30;18.93
79142;BME280;68550;-26.480;29.234;2023-09-08T07:23:53;84729.81;;;23.20;18.56
79142;BME280;68550;-26.480;29.234;2023-09-08T07:26:18;84730.10;;;23.76;19.03
79142;BME280;68550;-26.480;29.234;2023-09-08T07:45:41;84727.19;;;23.58;18.57
79142;BME280;68550;-26.480;29.234;2023-09-08T07:48:06;84722.09;;;23.66;18.68
79142;BME280;68550;-26.480;29.234;2023-09-08T07:50:32;84724.68;;;23.60;18.71
79142;BME280;68550;-26.480;29.234;2023-09-08T07:52:57;84730.78;;;23.56;18.62
79142;BME280;68550;-26.480;29.234;2023-09-08T08:02:41;84725.04;;;23.87;18.66
79142;BME280;68550;-26.480;29.234;2023-09-08T08:07:30;84723.99;;;23.75;18.63
79142;BME280;68550;-26.480;29.234;2023-09-08T08:12:20;84711.11;;;23.65;18.63
79142;BME280;68550;-26.480;29.234;2023-09-08T08:14:46;84709.70;;;23.76;18.18
79142;BME280;68550;-26.480;29.234;2023-09-08T08:17:13;84710.13;;;23.73;18.55
79142;BME280;68550;-26.480;29.234;2023-09-08T08:26:54;84707.57;;;23.62;18.59
79142;BME280;68550;-26.480;29.234;2023-09-08T08:31:43;84700.74;;;23.90;18.63
79142;BME280;68550;-26.480;29.234;2023-09-08T08:34:09;84698.39;;;23.94;18.69
79142;BME280;68550;-26.480;29.234;2023-09-08T08:39:05;84696.71;;;23.93;18.84
79142;BME280;68550;-26.480;29.234;2023-09-08T08:46:17;84697.39;;;23.92;18.93
79142;BME280;68550;-26.480;29.234;2023-09-08T08:51:11;84692.25;;;23.87;18.83
79142;BME280;68550;-26.480;29.234;2023-09-08T09:07:13;84686.94;;;23.29;19.41
79142;BME280;68550;-26.480;29.234;2023-09-08T09:12:03;84687.57;;;23.92;19.15
79142;BME280;68550;-26.480;29.234;2023-09-08T09:14:28;84687.92;;;23.94;19.14
79142;BME280;68550;-26.480;29.234;2023-09-08T09:16:56;84685.37;;;23.96;19.13
79142;BME280;68550;-26.480;29.234;2023-09-08T09:19:20;84680.14;;;24.21;19.18
79142;BME280;68550;-26.480;29.234;2023-09-08T09:21:46;84675.22;;;23.90;19.25
79142;BME280;68550;-26.480;29.234;2023-09-08T09:24:15;84666.61;;;23.69;19.29
79142;BME280;68550;-26.480;29.234;2023-09-08T09:26:36;84665.43;;;23.89;19.35
79142;BME280;68550;-26.480;29.234;2023-09-08T09:29:01;84665.08;;;23.89;19.34
79142;BME280;68550;-26.480;29.234;2023-09-08T09:31:28;84661.62;;;24.06;19.44
79142;BME280;68550;-26.480;29.234;2023-09-08T09:34:02;84661.06;;;23.89;19.48
79142;BME280;68550;-26.480;29.234;2023-09-08T09:36:21;84657.51;;;23.89;19.48
79142;BME280;68550;-26.480;29.234;2023-09-08T09:38:42;84658.10;;;23.94;19.49
79142;BME280;68550;-26.480;29.234;2023-09-08T09:41:08;84644.59;;;23.97;19.52
79142;BME280;68550;-26.480;29.234;2023-09-08T09:43:34;84644.86;;;23.96;19.60
79142;BME280;68550;-26.480;29.234;2023-09-08T09:45:59;84637.61;;;23.96;19.65
79142;BME280;68550;-26.480;29.234;2023-09-08T09:48:25;84631.90;;;23.94;19.67
79142;BME280;68550;-26.480;29.234;2023-09-08T09:50:50;84630.34;;;23.96;19.72
79142;BME280;68550;-26.480;29.234;2023-09-08T09:53:18;84619.98;;;23.95;19.72
79142;BME280;68550;-26.480;29.234;2023-09-08T09:55:43;84612.66;;;23.95;19.73
79142;BME280;68550;-26.480;29.234;2023-09-08T09:58:07;84612.29;;;23.98;19.84
79142;BME280;68550;-26.480;29.234;2023-09-08T10:00:32;84605.04;;;23.90;19.86
79142;BME280;68550;-26.480;29.234;2023-09-08T10:02:57;84602.56;;;23.93;19.89
79142;BME280;68550;-26.480;29.234;2023-09-08T10:05:24;84595.58;;;23.95;19.86
79142;BME280;68550;-26.480;29.234;2023-09-08T10:07:47;84587.59;;;23.99;19.91
79142;BME280;68550;-26.480;29.234;2023-09-08T10:10:15;84586.20;;;23.97;19.91
79142;BME280;68550;-26.480;29.234;2023-09-08T10:12:39;84575.65;;;24.01;19.97
79142;BME280;68550;-26.480;29.234;2023-09-08T10:15:06;84583.31;;;24.03;19.98
79142;BME280;68550;-26.480;29.234;2023-09-08T10:17:31;84582.68;;;24.07;19.98
79142;BME280;68550;-26.480;29.234;2023-09-08T10:19:55;84576.99;;;24.09;19.95
79142;BME280;68550;-26.480;29.234;2023-09-08T10:22:26;84570.56;;;24.08;20.02
79142;BME280;68550;-26.480;29.234;2023-09-08T10:24:46;84560.64;;;24.11;19.99
79142;BME280;68550;-26.480;29.234;2023-09-08T10:27:11;84559.75;;;24.11;19.99
79142;BME280;68550;-26.480;29.234;2023-09-08T10:29:36;84551.10;;;24.10;20.02
79142;BME280;68550;-26.480;29.234;2023-09-08T10:32:03;84546.90;;;23.90;20.04
79142;BME280;68550;-26.480;29.234;2023-09-08T10:34:28;84534.63;;;24.15;19.99
79142;BME280;68550;-26.480;29.234;2023-09-08T10:36:52;84537.18;;;24.22;19.99
79142;BME280;68550;-26.480;29.234;2023-09-08T10:39:28;84540.60;;;24.21;20.03
79142;BME280;68550;-26.480;29.234;2023-09-08T10:41:43;84542.23;;;24.02;20.05
79142;BME280;68550;-26.480;29.234;2023-09-08T10:44:09;84536.36;;;24.21;20.10
79142;BME280;68550;-26.480;29.234;2023-09-08T10:46:38;84532.45;;;24.20;20.02
79142;BME280;68550;-26.480;29.234;2023-09-08T10:49:03;84529.69;;;24.09;19.96
79142;BME280;68550;-26.480;29.234;2023-09-08T10:51:25;84536.99;;;24.14;19.99
79142;BME280;68550;-26.480;29.234;2023-09-08T10:53:51;84535.63;;;24.18;20.11
79142;BME280;68550;-26.480;29.234;2023-09-08T10:56:19;84530.72;;;24.21;20.03
79142;BME280;68550;-26.480;29.234;2023-09-08T10:58:43;84524.97;;;24.22;20.00
79142;BME280;68550;-26.480;29.234;2023-09-08T11:01:12;84526.41;;;24.23;20.05
79142;BME280;68550;-26.480;29.234;2023-09-08T11:03:45;84518.27;;;23.95;20.03
79142;BME280;68550;-26.480;29.234;2023-09-08T11:05:58;84517.09;;;24.01;20.10
79142;BME280;68550;-26.480;29.234;2023-09-08T11:08:25;84511.57;;;24.19;19.95
79142;BME280;68550;-26.480;29.234;2023-09-08T11:10:50;84506.71;;;23.97;20.07
79142;BME280;68550;-26.480;29.234;2023-09-08T11:13:15;84505.34;;;24.04;20.11
79142;BME280;68550;-26.480;29.234;2023-09-08T11:15:40;84505.52;;;24.11;20.13
79142;BME280;68550;-26.480;29.234;2023-09-08T11:18:08;84507.11;;;24.10;20.18
79142;BME280;68550;-26.480;29.234;2023-09-08T11:20:31;84507.44;;;24.36;20.21
79142;BME280;68550;-26.480;29.234;2023-09-08T11:22:56;84503.94;;;24.07;20.26
79142;BME280;68550;-26.480;29.234;2023-09-08T11:25:22;84500.13;;;24.05;20.30
79142;BME280;68550;-26.480;29.234;2023-09-08T11:27:48;84494.13;;;24.35;20.28
79142;BME280;68550;-26.480;29.234;2023-09-08T11:30:15;84490.76;;;24.13;20.28
79142;BME280;68550;-26.480;29.234;2023-09-08T11:32:38;84486.39;;;24.29;20.39
79142;BME280;68550;-26.480;29.234;2023-09-08T11:35:05;84481.78;;;24.10;20.43
79142;BME280;68550;-26.480;29.234;2023-09-08T11:37:29;84479.60;;;24.13;20.39
79142;BME280;68550;-26.480;29.234;2023-09-08T11:39:54;84476.55;;;24.35;20.42
79142;BME280;68550;-26.480;29.234;2023-09-08T11:42:20;84475.83;;;24.38;20.46
79142;BME280;68550;-26.480;29.234;2023-09-08T11:44:45;84475.75;;;24.34;20.49
79142;BME280;68550;-26.480;29.234;2023-09-08T11:47:12;84471.24;;;24.35;20.51
79142;BME280;68550;-26.480;29.234;2023-09-08T11:49:37;84474.29;;;24.39;20.36
79142;BME280;68550;-26.480;29.234;2023-09-08T11:52:01;84472.11;;;23.66;20.35
79142;BME280;68550;-26.480;29.234;2023-09-08T11:54:32;84470.72;;;23.70;20.97
79142;BME280;68550;-26.480;29.234;2023-09-08T11:56:52;84469.99;;;23.92;20.90
79142;BME280;68550;-26.480;29.234;2023-09-08T11:59:17;84468.37;;;24.45;21.16
79142;BME280;68550;-26.480;29.234;2023-09-08T12:01:43;84463.50;;;24.49;20.99
79142;BME280;68550;-26.480;29.234;2023-09-08T12:04:17;84460.43;;;24.23;20.67
79142;BME280;68550;-26.480;29.234;2023-09-08T12:06:33;84458.51;;;24.03;21.03
79142;BME280;68550;-26.480;29.234;2023-09-08T12:09:01;84458.48;;;24.53;21.25
79142;BME280;68550;-26.480;29.234;2023-09-08T12:11:24;84450.82;;;24.49;21.32
79142;BME280;68550;-26.480;29.234;2023-09-08T12:13:50;84443.11;;;24.21;21.43
79142;BME280;68550;-26.480;29.234;2023-09-08T12:16:22;84441.18;;;24.36;20.88
79142;BME280;68550;-26.480;29.234;2023-09-08T12:19:07;84442.67;;;24.25;21.34
79142;BME280;68550;-26.480;29.234;2023-09-08T12:21:21;84441.93;;;24.17;21.35
79142;BME280;68550;-26.480;29.234;2023-09-08T12:23:32;84438.05;;;24.55;21.33
79142;BME280;68550;-26.480;29.234;2023-09-08T12:28:53;84436.74;;;24.65;20.88
79142;BME280;68550;-26.480;29.234;2023-09-08T12:33:14;84439.45;;;24.43;21.24
79142;BME280;68550;-26.480;29.234;2023-09-08T12:35:42;84440.78;;;24.74;21.21
79142;BME280;68550;-26.480;29.234;2023-09-08T12:38:06;84442.35;;;24.43;21.26
79142;BME280;68550;-26.480;29.234;2023-09-08T12:45:22;84432.15;;;24.52;21.29
79142;BME280;68550;-26.480;29.234;2023-09-08T12:47:46;84427.70;;;24.24;21.28
79142;BME280;68550;-26.480;29.234;2023-09-08T12:50:12;84423.42;;;24.72;21.34
79142;BME280;68550;-26.480;29.234;2023-09-08T12:52:38;84421.38;;;24.38;21.39
79142;BME280;68550;-26.480;29.234;2023-09-08T12:55:03;84417.90;;;24.31;21.36
79142;BME280;68550;-26.480;29.234;2023-09-08T12:57:28;84414.41;;;24.35;21.46
79142;BME280;68550;-26.480;29.234;2023-09-08T12:59:54;84412.37;;;24.36;21.67
79142;BME280;68550;-26.480;29.234;2023-09-08T13:02:20;84414.75;;;24.61;21.73
79142;BME280;68550;-26.480;29.234;2023-09-08T13:04:48;84416.99;;;24.51;21.79
79142;BME280;68550;-26.480;29.234;2023-09-08T13:07:11;84417.08;;;24.44;21.85
79142;BME280;68550;-26.480;29.234;2023-09-08T13:09:37;84410.37;;;24.77;21.82
79142;BME280;68550;-26.480;29.234;2023-09-08T13:12:03;84414.45;;;24.41;21.92
79142;BME280;68550;-26.480;29.234;2023-09-08T13:14:28;84408.65;;;24.48;21.97
79142;BME280;68550;-26.480;29.234;2023-09-08T13:16:53;84409.48;;;24.42;21.90
79142;BME280;68550;-26.480;29.234;2023-09-08T13:19:19;84407.01;;;24.37;21.81
79142;BME280;68550;-26.480;29.234;2023-09-08T13:21:45;84403.82;;;24.33;21.80
79142;BME280;68550;-26.480;29.234;2023-09-08T13:24:11;84406.07;;;24.38;21.79
79142;BME280;68550;-26.480;29.234;2023-09-08T13:26:36;84404.41;;;24.42;21.63
79142;BME280;68550;-26.480;29.234;2023-09-08T13:29:01;84408.78;;;24.64;21.72
79142;BME280;68550;-26.480;29.234;2023-09-08T13:31:27;84409.91;;;24.43;21.67
79142;BME280;68550;-26.480;29.234;2023-09-08T13:33:53;84406.47;;;24.64;21.74
79142;BME280;68550;-26.480;29.234;2023-09-08T13:36:18;84408.03;;;24.38;21.77
79142;BME280;68550;-26.480;29.234;2023-09-08T13:38:44;84402.42;;;24.41;21.74
79142;BME280;68550;-26.480;29.234;2023-09-08T13:41:09;84403.42;;;24.48;21.74
79142;BME280;68550;-26.480;29.234;2023-09-08T13:43:34;84406.31;;;24.71;21.72
79142;BME280;68550;-26.480;29.234;2023-09-08T13:46:01;84407.04;;;24.27;21.75
79142;BME280;68550;-26.480;29.234;2023-09-08T13:48:25;84404.32;;;24.55;21.94
79142;BME280;68550;-26.480;29.234;2023-09-08T13:50:50;84406.43;;;24.63;21.90
79142;BME280;68550;-26.480;29.234;2023-09-08T13:53:15;84403.79;;;24.43;22.10
79142;BME280;68550;-26.480;29.234;2023-09-08T13:55:41;84403.18;;;24.49;22.15
79142;BME280;68550;-26.480;29.234;2023-09-08T13:58:07;84404.26;;;24.19;22.26
79142;BME280;68550;-26.480;29.234;2023-09-08T14:00:32;84402.14;;;24.50;22.26
79142;BME280;68550;-26.480;29.234;2023-09-08T14:02:58;84402.35;;;24.75;22.25
79142;BME280;68550;-26.480;29.234;2023-09-08T14:05:24;84407.82;;;24.74;22.32
79142;BME280;68550;-26.480;29.234;2023-09-08T14:07:49;84406.70;;;24.76;22.19
79142;BME280;68550;-26.480;29.234;2023-09-08T14:10:14;84402.14;;;24.17;22.13
79142;BME280;68550;-26.480;29.234;2023-09-08T14:12:40;84400.07;;;24.78;22.01
79142;BME280;68550;-26.480;29.234;2023-09-08T14:15:06;84402.36;;;24.51;22.00